Wetterdaten: Woche 19.01.09 - 25.01.09 (KW4)
Datum Zeit Temp. Innen Temp. Aussen Feuchte Inne Feuchte Auss Luftdruck Regen ab 0,1 Wind
19.01.2009 00:00 16,4 C 3,2 C 43 % 84 % 1004,4 hPa 0,0 l/m 1,2 km/h (1 Bft)
19.01.2009 01:00 16,3 C 3,2 C 43 % 83 % 1003,5 hPa 0,0 l/m 1,6 km/h (1 Bft)
19.01.2009 02:00 16,3 C 2,8 C 43 % 84 % 1003,3 hPa 0,0 l/m 0,1 km/h (0 Bft)
19.01.2009 03:00 16,2 C 2,4 C 43 % 85 % 1002,2 hPa 0,0 l/m 0,0 km/h (0 Bft)
19.01.2009 04:00 16,2 C 2,7 C 43 % 85 % 1000,9 hPa 0,0 l/m 0,0 km/h (0 Bft)
19.01.2009 05:00 16,2 C 2,5 C 43 % 84 % 999,6 hPa 0,0 l/m 0,3 km/h (0 Bft)
19.01.2009 06:00 16,2 C 2,9 C 42 % 84 % 998,1 hPa 0,0 l/m 0,3 km/h (0 Bft)
19.01.2009 07:00 16,2 C 2,7 C 42 % 84 % 996,8 hPa 0,0 l/m 0,4 km/h (0 Bft)
19.01.2009 08:00 16,1 C 2,7 C 42 % 85 % 994,7 hPa 0,0 l/m 0,3 km/h (0 Bft)
19.01.2009 09:00 15,8 C 3,2 C 42 % 85 % 992,4 hPa 0,0 l/m 0,9 km/h (0 Bft)
19.01.2009 10:00 15,5 C 3,7 C 43 % 87 % 989,7 hPa 1,6 l/m 2,0 km/h (1 Bft)
19.01.2009 11:00 15,7 C 4,1 C 45 % 88 % 987,3 hPa 0,5 l/m 4,4 km/h (1 Bft)
19.01.2009 12:00 15,8 C 4,4 C 45 % 88 % 985,6 hPa 0,5 l/m 4,8 km/h (1 Bft)
19.01.2009 13:00 15,9 C 5,1 C 45 % 88 % 984,3 hPa 0,0 l/m 1,9 km/h (1 Bft)
19.01.2009 14:00 15,9 C 8,2 C 46 % 85 % 984,3 hPa 0,5 l/m 7,9 km/h (2 Bft)
19.01.2009 15:00 16,0 C 10,2 C 46 % 73 % 985,1 hPa 0,0 l/m 5,0 km/h (1 Bft)
19.01.2009 16:00 16,1 C 9,9 C 46 % 72 % 985,3 hPa 0,0 l/m 1,8 km/h (1 Bft)
19.01.2009 17:00 16,1 C 8,8 C 46 % 74 % 984,8 hPa 0,0 l/m 0,0 km/h (0 Bft)
19.01.2009 18:00 16,3 C 7,9 C 46 % 76 % 984,3 hPa 0,0 l/m 0,2 km/h (0 Bft)
19.01.2009 19:00 16,5 C 7,9 C 46 % 77 % 984,3 hPa 0,0 l/m 1,5 km/h (1 Bft)
19.01.2009 20:00 16,6 C 8,1 C 46 % 80 % 984,4 hPa 0,0 l/m 2,4 km/h (1 Bft)
19.01.2009 21:00 16,6 C 7,9 C 46 % 76 % 985,8 hPa 0,0 l/m 11,2 km/h (2 Bft)
19.01.2009 22:00 16,6 C 6,6 C 45 % 74 % 986,5 hPa 0,0 l/m 7,4 km/h (2 Bft)
19.01.2009 23:00 16,5 C 6,4 C 44 % 72 % 988,0 hPa 0,0 l/m 9,3 km/h (2 Bft)
20.01.2009 00:00 16,4 C 6,1 C 44 % 70 % 988,3 hPa 0,0 l/m 7,3 km/h (2 Bft)
20.01.2009 01:00 16,4 C 5,5 C 43 % 72 % 988,9 hPa 0,0 l/m 6,7 km/h (2 Bft)
20.01.2009 02:00 16,3 C 4,0 C 44 % 79 % 989,4 hPa 0,0 l/m 1,4 km/h (1 Bft)
20.01.2009 03:00 16,2 C 4,1 C 44 % 79 % 990,3 hPa 0,0 l/m 5,5 km/h (1 Bft)
20.01.2009 04:00 16,2 C 3,2 C 43 % 80 % 991,0 hPa 0,0 l/m 3,5 km/h (1 Bft)
20.01.2009 05:00 16,4 C 3,0 C 43 % 80 % 992,1 hPa 0,0 l/m 1,6 km/h (1 Bft)
20.01.2009 06:00 16,4 C 2,9 C 43 % 80 % 992,4 hPa 0,0 l/m 1,9 km/h (1 Bft)
20.01.2009 07:00 16,4 C 2,6 C 42 % 80 % 992,7 hPa 0,0 l/m 0,2 km/h (0 Bft)
20.01.2009 08:00 16,3 C 2,1 C 42 % 81 % 994,2 hPa 0,0 l/m 0,2 km/h (0 Bft)
20.01.2009 09:00 16,3 C 2,7 C 42 % 80 % 995,0 hPa 0,0 l/m 0,7 km/h (0 Bft)
20.01.2009 10:00 16,3 C 3,2 C 42 % 78 % 995,8 hPa 0,0 l/m 0,2 km/h (0 Bft)
20.01.2009 11:00 16,2 C 4,0 C 42 % 77 % 996,4 hPa 0,0 l/m 0,5 km/h (0 Bft)
20.01.2009 12:00 16,1 C 5,5 C 42 % 75 % 996,4 hPa 0,0 l/m 2,1 km/h (1 Bft)
20.01.2009 13:00 16,1 C 7,3 C 42 % 72 % 996,4 hPa 0,0 l/m 1,2 km/h (1 Bft)
20.01.2009 14:00 16,2 C 8,4 C 42 % 68 % 996,3 hPa 0,0 l/m 2,9 km/h (1 Bft)
20.01.2009 15:00 16,2 C 7,7 C 42 % 67 % 997,3 hPa 0,0 l/m 0,6 km/h (0 Bft)
20.01.2009 16:00 16,3 C 6,6 C 45 % 69 % 997,6 hPa 0,0 l/m 0,0 km/h (0 Bft)
20.01.2009 17:00 16,4 C 5,1 C 48 % 73 % 998,4 hPa 0,0 l/m 0,0 km/h (0 Bft)
20.01.2009 18:00 16,4 C 3,6 C 47 % 75 % 998,4 hPa 0,0 l/m 0,0 km/h (0 Bft)
20.01.2009 19:00 16,5 C 2,3 C 45 % 77 % 999,5 hPa 0,0 l/m 0,0 km/h (0 Bft)
20.01.2009 20:00 16,4 C 1,6 C 45 % 79 % 999,8 hPa 0,0 l/m 0,0 km/h (0 Bft)
20.01.2009 21:00 16,4 C 1,3 C 44 % 81 % 1000,5 hPa 0,0 l/m 0,0 km/h (0 Bft)
20.01.2009 22:00 16,4 C 1,0 C 43 % 82 % 1000,5 hPa 0,0 l/m 0,0 km/h (0 Bft)
20.01.2009 23:00 16,3 C 1,0 C 43 % 82 % 1001,0 hPa 0,0 l/m 0,0 km/h (0 Bft)
21.01.2009 00:00 16,2 C 1,1 C 43 % 82 % 1001,5 hPa 0,0 l/m 0,1 km/h (0 Bft)
21.01.2009 01:00 16,2 C 1,1 C 42 % 83 % 1001,5 hPa 0,0 l/m 0,0 km/h (0 Bft)
21.01.2009 02:00 16,2 C 0,7 C 42 % 83 % 1001,8 hPa 0,0 l/m 0,0 km/h (0 Bft)
21.01.2009 03:00 16,1 C 0,6 C 42 % 84 % 1002,5 hPa 0,0 l/m 0,0 km/h (0 Bft)
21.01.2009 04:00 16,1 C 0,4 C 42 % 84 % 1002,5 hPa 0,0 l/m 0,0 km/h (0 Bft)
21.01.2009 05:00 16,1 C -0,2 C 42 % 84 % 1002,5 hPa 0,0 l/m 0,0 km/h (0 Bft)
21.01.2009 06:00 16,0 C -0,6 C 41 % 85 % 1003,5 hPa 0,0 l/m 0,0 km/h (0 Bft)
21.01.2009 07:00 16,0 C -0,1 C 41 % 85 % 1003,9 hPa 0,0 l/m 0,0 km/h (0 Bft)
21.01.2009 08:00 16,0 C 0,3 C 42 % 86 % 1005,0 hPa 0,0 l/m 0,0 km/h (0 Bft)
21.01.2009 09:00 16,0 C 0,8 C 42 % 86 % 1005,5 hPa 0,0 l/m 0,0 km/h (0 Bft)
21.01.2009 10:00 16,0 C 1,6 C 42 % 86 % 1006,4 hPa 0,0 l/m 0,0 km/h (0 Bft)
21.01.2009 11:00 16,0 C 2,7 C 42 % 86 % 1006,5 hPa 0,0 l/m 0,0 km/h (0 Bft)
21.01.2009 12:00 16,0 C 4,2 C 42 % 84 % 1006,5 hPa 0,0 l/m 0,0 km/h (0 Bft)
21.01.2009 13:00 16,0 C 6,8 C 42 % 77 % 1006,4 hPa 0,0 l/m 0,3 km/h (0 Bft)
21.01.2009 14:00 16,0 C 6,9 C 42 % 73 % 1006,4 hPa 0,0 l/m 1,5 km/h (1 Bft)
21.01.2009 15:00 16,0 C 6,0 C 42 % 74 % 1007,0 hPa 0,0 l/m 0,0 km/h (0 Bft)
21.01.2009 16:00 16,0 C 5,3 C 42 % 75 % 1007,4 hPa 0,0 l/m 0,0 km/h (0 Bft)
21.01.2009 17:00 15,9 C 3,8 C 42 % 77 % 1007,5 hPa 0,0 l/m 0,0 km/h (0 Bft)
21.01.2009 18:00 16,1 C 2,8 C 42 % 79 % 1007,6 hPa 0,0 l/m 0,0 km/h (0 Bft)
21.01.2009 19:00 16,3 C 1,8 C 42 % 80 % 1008,4 hPa 0,0 l/m 0,0 km/h (0 Bft)
21.01.2009 20:00 16,9 C 0,6 C 42 % 81 % 1008,5 hPa 0,0 l/m 0,0 km/h (0 Bft)
21.01.2009 21:00 17,0 C 0,2 C 40 % 83 % 1008,5 hPa 0,0 l/m 0,0 km/h (0 Bft)
21.01.2009 22:00 16,7 C 0,1 C 40 % 84 % 1008,5 hPa 0,0 l/m 0,0 km/h (0 Bft)
21.01.2009 23:00 16,5 C -0,1 C 40 % 84 % 1008,3 hPa 0,0 l/m 0,0 km/h (0 Bft)
22.01.2009 00:00 16,3 C -0,0 C 40 % 84 % 1007,5 hPa 0,0 l/m 0,0 km/h (0 Bft)
22.01.2009 01:00 16,2 C 0,5 C 40 % 84 % 1007,3 hPa 0,0 l/m 0,0 km/h (0 Bft)
22.01.2009 02:00 16,1 C 0,5 C 40 % 84 % 1006,5 hPa 0,0 l/m 0,0 km/h (0 Bft)
22.01.2009 03:00 16,0 C -0,2 C 40 % 84 % 1005,7 hPa 0,0 l/m 0,0 km/h (0 Bft)
22.01.2009 04:00 16,0 C -0,4 C 40 % 85 % 1004,8 hPa 0,0 l/m 0,0 km/h (0 Bft)
22.01.2009 05:00 16,0 C -0,1 C 40 % 86 % 1003,8 hPa 0,0 l/m 0,0 km/h (0 Bft)
22.01.2009 06:00 15,9 C 0,1 C 40 % 86 % 1003,0 hPa 0,0 l/m 0,1 km/h (0 Bft)
22.01.2009 07:00 15,9 C 0,5 C 40 % 85 % 1002,0 hPa 0,0 l/m 0,6 km/h (0 Bft)
22.01.2009 08:00 15,9 C 1,0 C 42 % 85 % 1000,7 hPa 0,0 l/m 0,9 km/h (0 Bft)
22.01.2009 09:00 15,8 C 1,6 C 43 % 84 % 999,9 hPa 0,0 l/m 0,4 km/h (0 Bft)
22.01.2009 10:00 15,8 C 2,4 C 43 % 82 % 998,9 hPa 0,0 l/m 2,3 km/h (1 Bft)
22.01.2009 11:00 15,8 C 3,5 C 42 % 78 % 998,4 hPa 0,0 l/m 4,3 km/h (1 Bft)
22.01.2009 12:00 15,9 C 4,5 C 41 % 72 % 996,9 hPa 0,0 l/m 4,0 km/h (1 Bft)
22.01.2009 13:00 15,9 C 5,0 C 41 % 70 % 995,7 hPa 0,0 l/m 1,7 km/h (1 Bft)
22.01.2009 14:00 15,8 C 5,2 C 41 % 70 % 994,1 hPa 0,0 l/m 2,9 km/h (1 Bft)
22.01.2009 15:00 15,8 C 5,2 C 41 % 72 % 993,4 hPa 0,0 l/m 3,7 km/h (1 Bft)
22.01.2009 16:00 15,9 C 4,5 C 41 % 78 % 992,5 hPa 1,6 l/m 5,3 km/h (1 Bft)
22.01.2009 17:00 16,0 C 3,9 C 41 % 83 % 992,4 hPa 1,0 l/m 3,3 km/h (1 Bft)
22.01.2009 18:00 16,0 C 4,0 C 42 % 83 % 992,4 hPa 0,0 l/m 1,3 km/h (1 Bft)
22.01.2009 19:00 16,1 C 4,2 C 42 % 85 % 992,4 hPa 0,5 l/m 1,2 km/h (1 Bft)
22.01.2009 20:00 16,2 C 4,5 C 42 % 86 % 992,4 hPa 0,0 l/m 1,1 km/h (0 Bft)
22.01.2009 21:00 16,2 C 4,6 C 42 % 85 % 992,1 hPa 0,0 l/m 0,0 km/h (0 Bft)
22.01.2009 22:00 16,2 C 4,4 C 42 % 84 % 991,4 hPa 0,0 l/m 0,1 km/h (0 Bft)
22.01.2009 23:00 16,3 C 4,0 C 42 % 84 % 990,5 hPa 0,0 l/m 0,1 km/h (0 Bft)
23.01.2009 00:00 16,4 C 3,7 C 42 % 84 % 989,1 hPa 0,0 l/m 0,1 km/h (0 Bft)
23.01.2009 01:00 16,3 C 3,3 C 42 % 85 % 987,9 hPa 0,0 l/m 0,1 km/h (0 Bft)
23.01.2009 02:00 16,3 C 3,5 C 42 % 85 % 986,1 hPa 0,0 l/m 0,2 km/h (0 Bft)
23.01.2009 03:00 16,3 C 3,6 C 42 % 86 % 984,8 hPa 1,0 l/m 0,4 km/h (0 Bft)
23.01.2009 04:00 16,3 C 3,6 C 43 % 87 % 982,4 hPa 1,0 l/m 2,3 km/h (1 Bft)
23.01.2009 05:00 16,3 C 3,8 C 43 % 88 % 979,8 hPa 0,5 l/m 2,0 km/h (1 Bft)
23.01.2009 06:00 16,3 C 3,8 C 43 % 88 % 977,1 hPa 2,6 l/m 1,8 km/h (1 Bft)
23.01.2009 07:00 16,3 C 3,8 C 43 % 89 % 974,0 hPa 2,1 l/m 1,6 km/h (1 Bft)
23.01.2009 08:00 16,3 C 4,2 C 43 % 90 % 972,0 hPa 2,1 l/m 1,6 km/h (1 Bft)
23.01.2009 09:00 16,4 C 4,4 C 44 % 90 % 970,2 hPa 0,0 l/m 2,8 km/h (1 Bft)
23.01.2009 10:00 16,4 C 4,4 C 44 % 90 % 968,8 hPa 1,0 l/m 1,1 km/h (0 Bft)
23.01.2009 11:00 16,4 C 4,4 C 44 % 90 % 967,1 hPa 0,5 l/m 0,8 km/h (0 Bft)
23.01.2009 12:00 16,4 C 5,0 C 44 % 90 % 965,9 hPa 0,0 l/m 0,6 km/h (0 Bft)
23.01.2009 13:00 16,4 C 5,5 C 44 % 90 % 964,4 hPa 0,0 l/m 1,3 km/h (1 Bft)
23.01.2009 14:00 16,4 C 5,8 C 45 % 90 % 964,2 hPa 0,0 l/m 0,3 km/h (0 Bft)
23.01.2009 15:00 16,3 C 6,5 C 45 % 90 % 965,7 hPa 0,5 l/m 8,3 km/h (2 Bft)
23.01.2009 16:00 16,4 C 6,6 C 45 % 85 % 967,5 hPa 0,0 l/m 14,6 km/h (3 Bft)
23.01.2009 17:00 16,7 C 5,5 C 45 % 85 % 970,3 hPa 0,0 l/m 12,7 km/h (3 Bft)
23.01.2009 18:00 16,9 C 5,0 C 44 % 84 % 973,2 hPa 0,0 l/m 12,8 km/h (3 Bft)
23.01.2009 19:00 16,8 C 4,6 C 44 % 86 % 975,7 hPa 0,0 l/m 10,4 km/h (2 Bft)
23.01.2009 20:00 16,7 C 4,4 C 44 % 88 % 977,8 hPa 0,5 l/m 10,6 km/h (2 Bft)
23.01.2009 21:00 16,7 C 4,6 C 44 % 87 % 979,4 hPa 0,0 l/m 14,6 km/h (3 Bft)
23.01.2009 22:00 16,6 C 4,5 C 44 % 85 % 980,3 hPa 0,0 l/m 14,2 km/h (3 Bft)
23.01.2009 23:00 16,6 C 4,7 C 44 % 83 % 981,2 hPa 0,0 l/m 7,1 km/h (2 Bft)
24.01.2009 00:00 16,7 C 4,5 C 43 % 81 % 982,0 hPa 0,0 l/m 5,0 km/h (1 Bft)
24.01.2009 01:00 16,6 C 4,2 C 43 % 82 % 982,3 hPa 0,0 l/m 5,9 km/h (2 Bft)
24.01.2009 02:00 16,6 C 4,0 C 43 % 80 % 983,4 hPa 0,0 l/m 8,4 km/h (2 Bft)
24.01.2009 03:00 16,6 C 3,9 C 43 % 80 % 983,4 hPa 0,0 l/m 5,2 km/h (1 Bft)
24.01.2009 04:00 16,6 C 3,8 C 43 % 80 % 984,3 hPa 0,0 l/m 2,6 km/h (1 Bft)
24.01.2009 05:00 16,6 C 3,5 C 43 % 81 % 984,4 hPa 0,0 l/m 1,9 km/h (1 Bft)
24.01.2009 06:00 16,5 C 3,3 C 43 % 82 % 984,4 hPa 0,0 l/m 2,5 km/h (1 Bft)
24.01.2009 07:00 16,6 C 3,0 C 42 % 82 % 984,3 hPa 0,0 l/m 1,5 km/h (1 Bft)
24.01.2009 08:00 16,6 C 2,8 C 42 % 83 % 984,4 hPa 0,0 l/m 1,5 km/h (1 Bft)
24.01.2009 09:00 16,6 C 2,9 C 42 % 84 % 984,9 hPa 0,0 l/m 1,8 km/h (1 Bft)
24.01.2009 10:00 16,6 C 3,3 C 42 % 84 % 985,8 hPa 0,0 l/m 1,6 km/h (1 Bft)
24.01.2009 11:00 16,6 C 3,9 C 42 % 83 % 987,0 hPa 0,0 l/m 0,6 km/h (0 Bft)
24.01.2009 12:00 16,6 C 4,4 C 42 % 83 % 987,7 hPa 0,0 l/m 0,1 km/h (0 Bft)
24.01.2009 13:00 16,7 C 5,0 C 43 % 82 % 988,4 hPa 0,0 l/m 0,9 km/h (0 Bft)
24.01.2009 14:00 16,8 C 5,2 C 42 % 82 % 989,1 hPa 0,0 l/m 0,7 km/h (0 Bft)
24.01.2009 15:00 16,8 C 5,3 C 43 % 81 % 990,3 hPa 0,0 l/m 0,2 km/h (0 Bft)
24.01.2009 16:00 16,8 C 5,3 C 43 % 82 % 991,1 hPa 0,0 l/m 0,0 km/h (0 Bft)
24.01.2009 17:00 16,9 C 4,9 C 43 % 82 % 992,3 hPa 0,0 l/m 0,0 km/h (0 Bft)
24.01.2009 18:00 17,0 C 4,1 C 43 % 82 % 993,2 hPa 0,0 l/m 0,0 km/h (0 Bft)
24.01.2009 19:00 16,9 C 3,3 C 43 % 83 % 994,4 hPa 0,0 l/m 0,0 km/h (0 Bft)
24.01.2009 20:00 16,9 C 2,8 C 43 % 84 % 995,2 hPa 0,0 l/m 0,0 km/h (0 Bft)
24.01.2009 21:00 16,8 C 2,3 C 42 % 85 % 996,4 hPa 0,0 l/m 0,0 km/h (0 Bft)
24.01.2009 22:00 16,8 C 2,3 C 42 % 86 % 997,3 hPa 0,0 l/m 0,0 km/h (0 Bft)
24.01.2009 23:00 16,8 C 2,3 C 42 % 86 % 997,9 hPa 0,0 l/m 0,0 km/h (0 Bft)
25.01.2009 00:00 16,8 C 2,2 C 42 % 87 % 998,4 hPa 0,0 l/m 0,0 km/h (0 Bft)
25.01.2009 01:00 16,7 C 1,8 C 42 % 88 % 998,5 hPa 0,0 l/m 0,0 km/h (0 Bft)
25.01.2009 02:00 16,7 C 1,4 C 42 % 88 % 998,5 hPa 0,0 l/m 0,0 km/h (0 Bft)
25.01.2009 03:00 16,7 C 0,6 C 42 % 88 % 998,5 hPa 0,0 l/m 0,0 km/h (0 Bft)
25.01.2009 04:00 16,6 C -0,0 C 42 % 88 % 998,5 hPa 0,0 l/m 0,0 km/h (0 Bft)
25.01.2009 05:00 16,6 C -0,2 C 42 % 88 % 998,5 hPa 0,0 l/m 0,0 km/h (0 Bft)
25.01.2009 06:00 16,5 C -0,4 C 41 % 88 % 998,5 hPa 0,0 l/m 0,0 km/h (0 Bft)
25.01.2009 07:00 16,5 C -0,6 C 41 % 88 % 998,5 hPa 0,0 l/m 0,0 km/h (0 Bft)
25.01.2009 08:00 16,4 C -0,6 C 41 % 88 % 998,5 hPa 0,0 l/m 0,0 km/h (0 Bft)
25.01.2009 09:00 16,4 C -0,2 C 41 % 88 % 998,5 hPa 0,0 l/m 0,1 km/h (0 Bft)
25.01.2009 10:00 16,3 C 0,9 C 41 % 89 % 998,5 hPa 0,0 l/m 0,3 km/h (0 Bft)
25.01.2009 11:00 16,5 C 2,6 C 41 % 86 % 998,4 hPa 0,0 l/m 2,3 km/h (1 Bft)
25.01.2009 12:00 17,0 C 4,4 C 41 % 80 % 997,4 hPa 0,0 l/m 2,2 km/h (1 Bft)
25.01.2009 13:00 17,1 C 6,0 C 41 % 75 % 996,5 hPa 0,0 l/m 1,3 km/h (1 Bft)
25.01.2009 14:00 16,9 C 6,9 C 40 % 70 % 996,4 hPa 0,0 l/m 1,5 km/h (1 Bft)
25.01.2009 15:00 16,8 C 6,2 C 40 % 70 % 996,4 hPa 0,0 l/m 0,6 km/h (0 Bft)
25.01.2009 16:00 16,8 C 5,2 C 40 % 72 % 996,4 hPa 0,0 l/m 0,0 km/h (0 Bft)
25.01.2009 17:00 16,8 C 3,9 C 40 % 74 % 996,4 hPa 0,0 l/m 0,0 km/h (0 Bft)
25.01.2009 18:00 17,0 C 2,8 C 40 % 76 % 996,4 hPa 0,0 l/m 0,1 km/h (0 Bft)
25.01.2009 19:00 17,0 C 2,4 C 40 % 78 % 996,4 hPa 0,0 l/m 0,0 km/h (0 Bft)
25.01.2009 20:00 16,8 C 2,1 C 40 % 79 % 996,4 hPa 0,0 l/m 0,1 km/h (0 Bft)
25.01.2009 21:00 16,8 C 1,6 C 40 % 80 % 997,4 hPa 0,0 l/m 0,0 km/h (0 Bft)
25.01.2009 22:00 16,8 C 1,3 C 40 % 82 % 997,5 hPa 0,0 l/m 0,6 km/h (0 Bft)
25.01.2009 23:00 16,9 C 1,2 C 40 % 83 % 997,5 hPa 0,0 l/m 0,0 km/h (0 Bft)
Min-Datum _ 19.01.09 21.01.09 21.01.09 20.01.09 23.01.09 - 19.01.09
_ Min-Zeit 10:30 06:12 21:18 14:44 13:10 - 00:00
Minimum _ 15,2 C -0,6 C 40 % 66 % 964,2 hPa - 0,0 km/h (0 Bft)
Max-Datum _ 21.01.09 19.01.09 20.01.09 23.01.09 21.01.09 23.01.09 23.01.09
_ Max-Zeit 21:06 15:02 17:12 08:18 18:52 06:04 19:04
Maximum _ 17,2 C 10,4 C 49 % 90 % 1008,5 hPa 2,6 l/m 43,6 km/h
N-NW (6 Bft)
Durchschnitt _ 16,4 C 3,5 C 43 % 82 % 993,1 hPa #18,1 l/m 1,8 km/h (1 Bft)
© 2012 W. Hausmann